sensor_id;sensor_type;location;lat;lon;timestamp;P1;durP1;ratioP1;P2;durP2;ratioP2
16826;SDS011;8530;49.540;8.576;2023-01-10T00:00:21;3.87;;;2.50;;
16826;SDS011;8530;49.540;8.576;2023-01-10T00:02:48;3.57;;;2.37;;
16826;SDS011;8530;49.540;8.576;2023-01-10T00:05:15;2.77;;;2.57;;
16826;SDS011;8530;49.540;8.576;2023-01-10T00:07:43;3.10;;;2.50;;
16826;SDS011;8530;49.540;8.576;2023-01-10T00:10:10;3.20;;;2.60;;
16826;SDS011;8530;49.540;8.576;2023-01-10T00:12:38;2.80;;;2.50;;
16826;SDS011;8530;49.540;8.576;2023-01-10T00:15:23;3.80;;;3.40;;
16826;SDS011;8530;49.540;8.576;2023-01-10T00:17:51;5.00;;;3.67;;
16826;SDS011;8530;49.540;8.576;2023-01-10T00:20:18;4.30;;;3.80;;
16826;SDS011;8530;49.540;8.576;2023-01-10T00:22:45;5.80;;;3.13;;
16826;SDS011;8530;49.540;8.576;2023-01-10T00:25:12;4.70;;;2.83;;
16826;SDS011;8530;49.540;8.576;2023-01-10T00:27:39;3.80;;;2.47;;
16826;SDS011;8530;49.540;8.576;2023-01-10T00:30:06;3.60;;;2.70;;
16826;SDS011;8530;49.540;8.576;2023-01-10T00:32:39;3.17;;;2.60;;
16826;SDS011;8530;49.540;8.576;2023-01-10T00:35:07;3.97;;;2.30;;
16826;SDS011;8530;49.540;8.576;2023-01-10T00:37:35;4.07;;;2.63;;
16826;SDS011;8530;49.540;8.576;2023-01-10T00:40:04;2.63;;;2.40;;
16826;SDS011;8530;49.540;8.576;2023-01-10T00:42:33;2.53;;;2.30;;
16826;SDS011;8530;49.540;8.576;2023-01-10T00:45:17;2.60;;;2.30;;
16826;SDS011;8530;49.540;8.576;2023-01-10T00:47:47;4.10;;;2.93;;
16826;SDS011;8530;49.540;8.576;2023-01-10T00:50:15;4.90;;;2.53;;
16826;SDS011;8530;49.540;8.576;2023-01-10T00:52:42;3.20;;;2.63;;
16826;SDS011;8530;49.540;8.576;2023-01-10T00:55:09;3.23;;;2.23;;
16826;SDS011;8530;49.540;8.576;2023-01-10T00:57:36;3.53;;;1.93;;
16826;SDS011;8530;49.540;8.576;2023-01-10T01:00:03;1.97;;;1.83;;
16826;SDS011;8530;49.540;8.576;2023-01-10T01:02:33;2.03;;;1.83;;
16826;SDS011;8530;49.540;8.576;2023-01-10T01:05:02;2.10;;;2.00;;
16826;SDS011;8530;49.540;8.576;2023-01-10T01:07:30;2.60;;;2.40;;
16826;SDS011;8530;49.540;8.576;2023-01-10T01:09:56;2.20;;;2.00;;
16826;SDS011;8530;49.540;8.576;2023-01-10T01:12:40;1.80;;;1.70;;
16826;SDS011;8530;49.540;8.576;2023-01-10T01:15:07;2.77;;;1.90;;
16826;SDS011;8530;49.540;8.576;2023-01-10T01:17:35;1.60;;;1.50;;
16826;SDS011;8530;49.540;8.576;2023-01-10T01:20:03;3.90;;;1.90;;
16826;SDS011;8530;49.540;8.576;2023-01-10T01:22:31;1.90;;;1.80;;
16826;SDS011;8530;49.540;8.576;2023-01-10T01:24:58;1.70;;;1.60;;
16826;SDS011;8530;49.540;8.576;2023-01-10T01:27:24;1.97;;;1.87;;
16826;SDS011;8530;49.540;8.576;2023-01-10T01:29:51;1.47;;;1.37;;
16826;SDS011;8530;49.540;8.576;2023-01-10T01:32:18;1.70;;;1.60;;
16826;SDS011;8530;49.540;8.576;2023-01-10T01:34:45;1.50;;;1.40;;
16826;SDS011;8530;49.540;8.576;2023-01-10T01:37:14;1.80;;;1.70;;
16826;SDS011;8530;49.540;8.576;2023-01-10T01:39:43;1.77;;;1.60;;
16826;SDS011;8530;49.540;8.576;2023-01-10T01:42:13;2.50;;;1.57;;
16826;SDS011;8530;49.540;8.576;2023-01-10T01:45:02;1.80;;;1.70;;
16826;SDS011;8530;49.540;8.576;2023-01-10T01:47:58;1.50;;;1.40;;
16826;SDS011;8530;49.540;8.576;2023-01-10T01:50:30;2.03;;;1.30;;
16826;SDS011;8530;49.540;8.576;2023-01-10T01:53:12;2.00;;;1.30;;
16826;SDS011;8530;49.540;8.576;2023-01-10T01:55:43;1.97;;;1.80;;
16826;SDS011;8530;49.540;8.576;2023-01-10T01:58:12;2.80;;;1.70;;
16826;SDS011;8530;49.540;8.576;2023-01-10T02:00:43;1.80;;;1.70;;
16826;SDS011;8530;49.540;8.576;2023-01-10T02:03:10;2.70;;;1.60;;
16826;SDS011;8530;49.540;8.576;2023-01-10T02:05:37;1.40;;;1.30;;
16826;SDS011;8530;49.540;8.576;2023-01-10T02:08:07;1.83;;;1.70;;
16826;SDS011;8530;49.540;8.576;2023-01-10T02:10:35;1.70;;;1.60;;
16826;SDS011;8530;49.540;8.576;2023-01-10T02:13:06;6.00;;;2.00;;
16826;SDS011;8530;49.540;8.576;2023-01-10T02:15:36;2.20;;;1.80;;
16826;SDS011;8530;49.540;8.576;2023-01-10T02:18:03;1.60;;;1.50;;
16826;SDS011;8530;49.540;8.576;2023-01-10T02:20:32;1.40;;;1.30;;
16826;SDS011;8530;49.540;8.576;2023-01-10T02:23:14;2.87;;;1.70;;
16826;SDS011;8530;49.540;8.576;2023-01-10T02:29:27;2.20;;;2.00;;
16826;SDS011;8530;49.540;8.576;2023-01-10T02:32:20;2.60;;;1.70;;
16826;SDS011;8530;49.540;8.576;2023-01-10T02:35:01;2.23;;;2.03;;
16826;SDS011;8530;49.540;8.576;2023-01-10T02:37:43;2.83;;;1.60;;
16826;SDS011;8530;49.540;8.576;2023-01-10T02:40:18;1.73;;;1.60;;
16826;SDS011;8530;49.540;8.576;2023-01-10T02:42:51;4.70;;;1.80;;
16826;SDS011;8530;49.540;8.576;2023-01-10T02:45:24;1.73;;;1.50;;
16826;SDS011;8530;49.540;8.576;2023-01-10T02:47:56;2.67;;;1.70;;
16826;SDS011;8530;49.540;8.576;2023-01-10T02:50:32;4.10;;;2.00;;
16826;SDS011;8530;49.540;8.576;2023-01-10T02:53:09;2.50;;;2.30;;
16826;SDS011;8530;49.540;8.576;2023-01-10T02:55:43;2.50;;;2.30;;
16826;SDS011;8530;49.540;8.576;2023-01-10T02:58:25;5.17;;;2.10;;
16826;SDS011;8530;49.540;8.576;2023-01-10T03:01:05;5.13;;;3.23;;
16826;SDS011;8530;49.540;8.576;2023-01-10T03:03:42;5.90;;;2.80;;
16826;SDS011;8530;49.540;8.576;2023-01-10T03:06:19;3.70;;;2.60;;
16826;SDS011;8530;49.540;8.576;2023-01-10T03:08:55;7.83;;;2.53;;
16826;SDS011;8530;49.540;8.576;2023-01-10T03:11:28;2.70;;;2.03;;
16826;SDS011;8530;49.540;8.576;2023-01-10T03:14:07;4.47;;;2.40;;
16826;SDS011;8530;49.540;8.576;2023-01-10T03:16:39;3.90;;;2.50;;
16826;SDS011;8530;49.540;8.576;2023-01-10T03:19:11;8.83;;;3.00;;
16826;SDS011;8530;49.540;8.576;2023-01-10T03:21:40;7.67;;;2.10;;
16826;SDS011;8530;49.540;8.576;2023-01-10T03:24:10;8.27;;;2.80;;
16826;SDS011;8530;49.540;8.576;2023-01-10T03:26:43;5.40;;;2.40;;
16826;SDS011;8530;49.540;8.576;2023-01-10T03:29:15;5.67;;;3.83;;
16826;SDS011;8530;49.540;8.576;2023-01-10T03:31:49;4.60;;;2.43;;
16826;SDS011;8530;49.540;8.576;2023-01-10T03:34:20;3.77;;;2.60;;
16826;SDS011;8530;49.540;8.576;2023-01-10T03:36:49;4.13;;;2.53;;
16826;SDS011;8530;49.540;8.576;2023-01-10T03:39:21;7.40;;;2.73;;
16826;SDS011;8530;49.540;8.576;2023-01-10T03:41:58;9.53;;;3.53;;
16826;SDS011;8530;49.540;8.576;2023-01-10T03:44:33;4.63;;;2.53;;
16826;SDS011;8530;49.540;8.576;2023-01-10T03:47:12;4.27;;;2.70;;
16826;SDS011;8530;49.540;8.576;2023-01-10T03:49:46;8.40;;;2.90;;
16826;SDS011;8530;49.540;8.576;2023-01-10T03:52:15;8.90;;;3.03;;
16826;SDS011;8530;49.540;8.576;2023-01-10T03:54:44;9.40;;;3.13;;
16826;SDS011;8530;49.540;8.576;2023-01-10T03:57:14;3.57;;;3.27;;
16826;SDS011;8530;49.540;8.576;2023-01-10T03:59:45;5.10;;;3.30;;
16826;SDS011;8530;49.540;8.576;2023-01-10T04:02:15;4.13;;;3.73;;
16826;SDS011;8530;49.540;8.576;2023-01-10T04:04:42;6.67;;;3.37;;
16826;SDS011;8530;49.540;8.576;2023-01-10T04:07:10;6.33;;;3.17;;
16826;SDS011;8530;49.540;8.576;2023-01-10T04:09:36;4.50;;;2.60;;
16826;SDS011;8530;49.540;8.576;2023-01-10T04:12:03;6.43;;;2.83;;
16826;SDS011;8530;49.540;8.576;2023-01-10T04:14:31;10.90;;;4.00;;
16826;SDS011;8530;49.540;8.576;2023-01-10T04:16:58;9.37;;;3.20;;
16826;SDS011;8530;49.540;8.576;2023-01-10T04:19:25;8.97;;;3.33;;
16826;SDS011;8530;49.540;8.576;2023-01-10T04:21:51;4.90;;;2.40;;
16826;SDS011;8530;49.540;8.576;2023-01-10T04:24:19;3.70;;;2.97;;
16826;SDS011;8530;49.540;8.576;2023-01-10T04:26:48;7.53;;;3.83;;
16826;SDS011;8530;49.540;8.576;2023-01-10T04:29:16;11.17;;;3.27;;
16826;SDS011;8530;49.540;8.576;2023-01-10T04:31:42;3.30;;;2.90;;
16826;SDS011;8530;49.540;8.576;2023-01-10T04:34:09;10.00;;;3.30;;
16826;SDS011;8530;49.540;8.576;2023-01-10T04:36:36;6.60;;;2.80;;
16826;SDS011;8530;49.540;8.576;2023-01-10T04:39:03;4.20;;;3.20;;
16826;SDS011;8530;49.540;8.576;2023-01-10T04:41:31;9.90;;;3.33;;
16826;SDS011;8530;49.540;8.576;2023-01-10T04:43:58;4.17;;;2.80;;
16826;SDS011;8530;49.540;8.576;2023-01-10T04:46:25;4.20;;;3.07;;
16826;SDS011;8530;49.540;8.576;2023-01-10T04:48:52;8.50;;;3.40;;
16826;SDS011;8530;49.540;8.576;2023-01-10T04:51:18;11.23;;;3.33;;
16826;SDS011;8530;49.540;8.576;2023-01-10T04:53:45;10.30;;;3.50;;
16826;SDS011;8530;49.540;8.576;2023-01-10T04:56:14;7.17;;;3.77;;
16826;SDS011;8530;49.540;8.576;2023-01-10T04:58:44;11.63;;;4.07;;
16826;SDS011;8530;49.540;8.576;2023-01-10T05:01:12;5.10;;;3.60;;
16826;SDS011;8530;49.540;8.576;2023-01-10T05:03:40;8.53;;;3.70;;
16826;SDS011;8530;49.540;8.576;2023-01-10T05:06:07;3.97;;;3.60;;
16826;SDS011;8530;49.540;8.576;2023-01-10T05:08:34;7.03;;;4.03;;
16826;SDS011;8530;49.540;8.576;2023-01-10T05:11:00;6.10;;;4.17;;
16826;SDS011;8530;49.540;8.576;2023-01-10T05:13:27;9.53;;;3.33;;
16826;SDS011;8530;49.540;8.576;2023-01-10T05:15:56;12.83;;;4.93;;
16826;SDS011;8530;49.540;8.576;2023-01-10T05:18:23;5.37;;;3.60;;
16826;SDS011;8530;49.540;8.576;2023-01-10T05:20:50;12.77;;;4.90;;
16826;SDS011;8530;49.540;8.576;2023-01-10T05:23:17;4.83;;;3.73;;
16826;SDS011;8530;49.540;8.576;2023-01-10T05:25:44;12.40;;;4.20;;
16826;SDS011;8530;49.540;8.576;2023-01-10T05:28:11;13.27;;;3.63;;
16826;SDS011;8530;49.540;8.576;2023-01-10T05:30:38;15.13;;;3.63;;
16826;SDS011;8530;49.540;8.576;2023-01-10T05:33:06;11.33;;;4.03;;
16826;SDS011;8530;49.540;8.576;2023-01-10T05:35:33;14.67;;;3.87;;
16826;SDS011;8530;49.540;8.576;2023-01-10T05:37:59;8.27;;;3.93;;
16826;SDS011;8530;49.540;8.576;2023-01-10T05:40:26;10.77;;;3.60;;
16826;SDS011;8530;49.540;8.576;2023-01-10T05:42:53;14.30;;;4.60;;
16826;SDS011;8530;49.540;8.576;2023-01-10T05:45:20;9.00;;;4.00;;
16826;SDS011;8530;49.540;8.576;2023-01-10T05:47:47;10.37;;;4.30;;
16826;SDS011;8530;49.540;8.576;2023-01-10T05:50:15;7.03;;;3.77;;
16826;SDS011;8530;49.540;8.576;2023-01-10T05:52:42;12.00;;;4.90;;
16826;SDS011;8530;49.540;8.576;2023-01-10T05:55:09;12.23;;;5.40;;
16826;SDS011;8530;49.540;8.576;2023-01-10T05:57:35;8.77;;;4.30;;
16826;SDS011;8530;49.540;8.576;2023-01-10T06:00:03;9.77;;;4.30;;
16826;SDS011;8530;49.540;8.576;2023-01-10T06:02:31;10.43;;;4.10;;
16826;SDS011;8530;49.540;8.576;2023-01-10T06:04:58;15.97;;;4.30;;
16826;SDS011;8530;49.540;8.576;2023-01-10T06:07:27;16.10;;;4.50;;
16826;SDS011;8530;49.540;8.576;2023-01-10T06:09:54;9.63;;;4.27;;
16826;SDS011;8530;49.540;8.576;2023-01-10T06:12:21;15.63;;;3.23;;
16826;SDS011;8530;49.540;8.576;2023-01-10T06:14:47;14.50;;;3.70;;
16826;SDS011;8530;49.540;8.576;2023-01-10T06:17:14;12.90;;;4.37;;
16826;SDS011;8530;49.540;8.576;2023-01-10T06:19:41;17.37;;;3.97;;
16826;SDS011;8530;49.540;8.576;2023-01-10T06:22:08;11.53;;;3.60;;
16826;SDS011;8530;49.540;8.576;2023-01-10T06:24:39;14.03;;;4.50;;
16826;SDS011;8530;49.540;8.576;2023-01-10T06:27:06;13.33;;;4.80;;
16826;SDS011;8530;49.540;8.576;2023-01-10T06:29:33;8.23;;;4.00;;
16826;SDS011;8530;49.540;8.576;2023-01-10T06:31:59;7.57;;;3.33;;
16826;SDS011;8530;49.540;8.576;2023-01-10T06:34:28;5.67;;;3.80;;
16826;SDS011;8530;49.540;8.576;2023-01-10T06:36:54;7.33;;;3.83;;
16826;SDS011;8530;49.540;8.576;2023-01-10T06:39:22;9.13;;;4.53;;
16826;SDS011;8530;49.540;8.576;2023-01-10T06:41:50;9.20;;;3.83;;
16826;SDS011;8530;49.540;8.576;2023-01-10T06:44:17;7.63;;;3.13;;
16826;SDS011;8530;49.540;8.576;2023-01-10T06:46:44;10.83;;;3.80;;
16826;SDS011;8530;49.540;8.576;2023-01-10T06:49:11;14.23;;;3.33;;
16826;SDS011;8530;49.540;8.576;2023-01-10T06:51:38;6.80;;;4.40;;
16826;SDS011;8530;49.540;8.576;2023-01-10T06:54:05;11.47;;;3.53;;
16826;SDS011;8530;49.540;8.576;2023-01-10T06:56:32;6.80;;;3.77;;
16826;SDS011;8530;49.540;8.576;2023-01-10T06:59:00;9.10;;;4.50;;
16826;SDS011;8530;49.540;8.576;2023-01-10T07:01:27;17.97;;;4.47;;
16826;SDS011;8530;49.540;8.576;2023-01-10T07:03:54;17.10;;;4.37;;
16826;SDS011;8530;49.540;8.576;2023-01-10T07:06:21;10.20;;;4.60;;
16826;SDS011;8530;49.540;8.576;2023-01-10T07:08:48;12.00;;;3.73;;
16826;SDS011;8530;49.540;8.576;2023-01-10T07:11:14;11.20;;;3.90;;
16826;SDS011;8530;49.540;8.576;2023-01-10T07:13:41;8.97;;;5.00;;
16826;SDS011;8530;49.540;8.576;2023-01-10T07:16:10;8.50;;;3.40;;
16826;SDS011;8530;49.540;8.576;2023-01-10T07:18:38;16.90;;;4.27;;
16826;SDS011;8530;49.540;8.576;2023-01-10T07:21:06;12.33;;;4.07;;
16826;SDS011;8530;49.540;8.576;2023-01-10T07:23:34;14.17;;;3.83;;
16826;SDS011;8530;49.540;8.576;2023-01-10T07:26:02;14.50;;;4.53;;
16826;SDS011;8530;49.540;8.576;2023-01-10T07:28:30;8.33;;;3.50;;
16826;SDS011;8530;49.540;8.576;2023-01-10T07:30:58;9.67;;;3.87;;
16826;SDS011;8530;49.540;8.576;2023-01-10T07:33:27;12.50;;;3.63;;
16826;SDS011;8530;49.540;8.576;2023-01-10T07:35:55;9.40;;;3.70;;
16826;SDS011;8530;49.540;8.576;2023-01-10T07:38:22;7.80;;;3.17;;
16826;SDS011;8530;49.540;8.576;2023-01-10T07:40:49;10.23;;;3.60;;
16826;SDS011;8530;49.540;8.576;2023-01-10T07:43:15;5.03;;;3.40;;
16826;SDS011;8530;49.540;8.576;2023-01-10T07:45:42;10.77;;;4.20;;
16826;SDS011;8530;49.540;8.576;2023-01-10T07:48:09;13.40;;;5.37;;
16826;SDS011;8530;49.540;8.576;2023-01-10T07:50:37;15.23;;;4.57;;
16826;SDS011;8530;49.540;8.576;2023-01-10T07:53:05;12.17;;;3.63;;
16826;SDS011;8530;49.540;8.576;2023-01-10T07:55:32;8.20;;;3.80;;
16826;SDS011;8530;49.540;8.576;2023-01-10T07:58:03;8.50;;;4.00;;
16826;SDS011;8530;49.540;8.576;2023-01-10T08:00:31;10.23;;;4.27;;
16826;SDS011;8530;49.540;8.576;2023-01-10T08:02:57;9.80;;;4.50;;
16826;SDS011;8530;49.540;8.576;2023-01-10T08:05:24;18.70;;;3.23;;
16826;SDS011;8530;49.540;8.576;2023-01-10T08:07:52;13.33;;;3.60;;
16826;SDS011;8530;49.540;8.576;2023-01-10T08:10:20;8.67;;;3.80;;
16826;SDS011;8530;49.540;8.576;2023-01-10T08:12:48;14.20;;;5.10;;
16826;SDS011;8530;49.540;8.576;2023-01-10T08:15:15;6.07;;;3.50;;
16826;SDS011;8530;49.540;8.576;2023-01-10T08:17:41;7.30;;;4.00;;
16826;SDS011;8530;49.540;8.576;2023-01-10T08:20:09;11.90;;;3.90;;
16826;SDS011;8530;49.540;8.576;2023-01-10T08:22:36;8.17;;;3.40;;
16826;SDS011;8530;49.540;8.576;2023-01-10T08:25:05;11.13;;;3.97;;
16826;SDS011;8530;49.540;8.576;2023-01-10T08:27:32;12.60;;;5.03;;
16826;SDS011;8530;49.540;8.576;2023-01-10T08:29:58;9.27;;;3.10;;
16826;SDS011;8530;49.540;8.576;2023-01-10T08:32:25;17.63;;;4.30;;
16826;SDS011;8530;49.540;8.576;2023-01-10T08:34:52;10.70;;;4.30;;
16826;SDS011;8530;49.540;8.576;2023-01-10T08:37:19;9.57;;;3.80;;
16826;SDS011;8530;49.540;8.576;2023-01-10T08:39:46;9.30;;;5.20;;
16826;SDS011;8530;49.540;8.576;2023-01-10T08:42:14;7.53;;;4.53;;
16826;SDS011;8530;49.540;8.576;2023-01-10T08:44:42;5.10;;;3.70;;
16826;SDS011;8530;49.540;8.576;2023-01-10T08:47:09;6.80;;;4.00;;
16826;SDS011;8530;49.540;8.576;2023-01-10T08:49:36;7.17;;;3.70;;
16826;SDS011;8530;49.540;8.576;2023-01-10T08:52:04;7.90;;;3.43;;
16826;SDS011;8530;49.540;8.576;2023-01-10T08:54:31;11.83;;;4.30;;
16826;SDS011;8530;49.540;8.576;2023-01-10T08:56:58;8.00;;;4.17;;
16826;SDS011;8530;49.540;8.576;2023-01-10T08:59:26;16.07;;;4.80;;
16826;SDS011;8530;49.540;8.576;2023-01-10T09:01:53;7.90;;;3.23;;
16826;SDS011;8530;49.540;8.576;2023-01-10T09:04:22;7.67;;;3.87;;
16826;SDS011;8530;49.540;8.576;2023-01-10T09:06:51;12.83;;;3.67;;
16826;SDS011;8530;49.540;8.576;2023-01-10T09:09:18;10.43;;;5.47;;
16826;SDS011;8530;49.540;8.576;2023-01-10T09:11:45;18.33;;;4.40;;
16826;SDS011;8530;49.540;8.576;2023-01-10T09:14:12;8.43;;;3.60;;
16826;SDS011;8530;49.540;8.576;2023-01-10T09:16:42;15.97;;;3.57;;
16826;SDS011;8530;49.540;8.576;2023-01-10T09:19:08;18.63;;;5.20;;
16826;SDS011;8530;49.540;8.576;2023-01-10T09:21:36;15.30;;;4.63;;
16826;SDS011;8530;49.540;8.576;2023-01-10T09:24:03;8.97;;;3.60;;
16826;SDS011;8530;49.540;8.576;2023-01-10T09:26:30;17.00;;;4.00;;
16826;SDS011;8530;49.540;8.576;2023-01-10T09:28:56;10.90;;;3.77;;
16826;SDS011;8530;49.540;8.576;2023-01-10T09:31:23;19.73;;;4.40;;
16826;SDS011;8530;49.540;8.576;2023-01-10T09:33:51;7.97;;;3.60;;
16826;SDS011;8530;49.540;8.576;2023-01-10T09:36:18;8.40;;;3.47;;
16826;SDS011;8530;49.540;8.576;2023-01-10T09:38:44;7.33;;;3.30;;
16826;SDS011;8530;49.540;8.576;2023-01-10T09:44:18;12.20;;;4.57;;
16826;SDS011;8530;49.540;8.576;2023-01-10T09:46:52;13.40;;;4.07;;
16826;SDS011;8530;49.540;8.576;2023-01-10T09:49:32;10.80;;;4.03;;
16826;SDS011;8530;49.540;8.576;2023-01-10T09:52:13;7.43;;;3.80;;
16826;SDS011;8530;49.540;8.576;2023-01-10T09:54:45;10.23;;;4.20;;
16826;SDS011;8530;49.540;8.576;2023-01-10T09:57:18;6.30;;;3.27;;
16826;SDS011;8530;49.540;8.576;2023-01-10T09:59:47;5.57;;;2.63;;
16826;SDS011;8530;49.540;8.576;2023-01-10T10:02:21;8.80;;;3.83;;
16826;SDS011;8530;49.540;8.576;2023-01-10T10:04:57;8.80;;;3.50;;
16826;SDS011;8530;49.540;8.576;2023-01-10T10:07:32;10.80;;;3.70;;
16826;SDS011;8530;49.540;8.576;2023-01-10T10:10:00;14.93;;;3.70;;
16826;SDS011;8530;49.540;8.576;2023-01-10T10:12:29;14.40;;;3.37;;
16826;SDS011;8530;49.540;8.576;2023-01-10T10:15:06;9.03;;;2.90;;
16826;SDS011;8530;49.540;8.576;2023-01-10T10:17:44;7.03;;;3.80;;
16826;SDS011;8530;49.540;8.576;2023-01-10T10:23:20;8.37;;;3.87;;
16826;SDS011;8530;49.540;8.576;2023-01-10T10:26:00;16.63;;;4.17;;
16826;SDS011;8530;49.540;8.576;2023-01-10T10:31:44;15.77;;;4.50;;
16826;SDS011;8530;49.540;8.576;2023-01-10T10:34:26;11.93;;;3.83;;
16826;SDS011;8530;49.540;8.576;2023-01-10T10:37:08;12.77;;;4.10;;
16826;SDS011;8530;49.540;8.576;2023-01-10T10:39:41;9.17;;;3.87;;
16826;SDS011;8530;49.540;8.576;2023-01-10T10:42:16;15.17;;;4.07;;
16826;SDS011;8530;49.540;8.576;2023-01-10T10:44:45;17.23;;;3.90;;
16826;SDS011;8530;49.540;8.576;2023-01-10T10:47:16;13.30;;;4.73;;
16826;SDS011;8530;49.540;8.576;2023-01-10T10:49:45;11.17;;;3.63;;
16826;SDS011;8530;49.540;8.576;2023-01-10T10:52:21;12.60;;;3.30;;
16826;SDS011;8530;49.540;8.576;2023-01-10T10:54:51;20.43;;;4.40;;
16826;SDS011;8530;49.540;8.576;2023-01-10T10:57:19;20.20;;;4.70;;
16826;SDS011;8530;49.540;8.576;2023-01-10T10:59:47;21.00;;;4.23;;
16826;SDS011;8530;49.540;8.576;2023-01-10T11:02:22;14.03;;;4.87;;
16826;SDS011;8530;49.540;8.576;2023-01-10T11:04:51;21.30;;;5.30;;
16826;SDS011;8530;49.540;8.576;2023-01-10T11:07:22;15.30;;;4.87;;
16826;SDS011;8530;49.540;8.576;2023-01-10T11:09:51;22.37;;;4.33;;
16826;SDS011;8530;49.540;8.576;2023-01-10T11:12:24;12.93;;;3.70;;
16826;SDS011;8530;49.540;8.576;2023-01-10T11:14:54;6.87;;;3.50;;
16826;SDS011;8530;49.540;8.576;2023-01-10T11:17:24;10.60;;;4.50;;
16826;SDS011;8530;49.540;8.576;2023-01-10T11:19:57;7.63;;;4.03;;
16826;SDS011;8530;49.540;8.576;2023-01-10T11:22:27;12.00;;;4.43;;
16826;SDS011;8530;49.540;8.576;2023-01-10T11:24:58;16.63;;;3.80;;
16826;SDS011;8530;49.540;8.576;2023-01-10T11:27:27;8.83;;;3.67;;
16826;SDS011;8530;49.540;8.576;2023-01-10T11:29:57;15.90;;;4.30;;
16826;SDS011;8530;49.540;8.576;2023-01-10T11:32:32;11.67;;;4.30;;
16826;SDS011;8530;49.540;8.576;2023-01-10T11:35:16;21.33;;;3.80;;
16826;SDS011;8530;49.540;8.576;2023-01-10T11:37:58;9.93;;;3.60;;
16826;SDS011;8530;49.540;8.576;2023-01-10T11:40:26;12.80;;;4.07;;
16826;SDS011;8530;49.540;8.576;2023-01-10T11:42:55;8.00;;;2.90;;
16826;SDS011;8530;49.540;8.576;2023-01-10T11:45:25;8.00;;;4.37;;
16826;SDS011;8530;49.540;8.576;2023-01-10T11:47:57;13.47;;;5.67;;
16826;SDS011;8530;49.540;8.576;2023-01-10T11:50:30;14.83;;;4.50;;
16826;SDS011;8530;49.540;8.576;2023-01-10T11:53:01;11.33;;;4.43;;
16826;SDS011;8530;49.540;8.576;2023-01-10T11:55:30;20.53;;;5.00;;
16826;SDS011;8530;49.540;8.576;2023-01-10T11:58:01;16.10;;;4.77;;
16826;SDS011;8530;49.540;8.576;2023-01-10T12:00:35;12.10;;;5.10;;
16826;SDS011;8530;49.540;8.576;2023-01-10T12:03:13;16.80;;;5.03;;
16826;SDS011;8530;49.540;8.576;2023-01-10T12:05:51;12.70;;;4.80;;
16826;SDS011;8530;49.540;8.576;2023-01-10T12:08:25;8.93;;;4.00;;
16826;SDS011;8530;49.540;8.576;2023-01-10T12:10:58;15.27;;;5.43;;
16826;SDS011;8530;49.540;8.576;2023-01-10T12:13:27;15.90;;;6.73;;
16826;SDS011;8530;49.540;8.576;2023-01-10T12:16:15;14.93;;;3.90;;
16826;SDS011;8530;49.540;8.576;2023-01-10T12:18:43;19.07;;;4.57;;
16826;SDS011;8530;49.540;8.576;2023-01-10T12:21:10;20.40;;;5.43;;
16826;SDS011;8530;49.540;8.576;2023-01-10T12:23:42;12.23;;;5.40;;
16826;SDS011;8530;49.540;8.576;2023-01-10T12:26:11;13.93;;;4.80;;
16826;SDS011;8530;49.540;8.576;2023-01-10T12:28:40;11.87;;;3.70;;
16826;SDS011;8530;49.540;8.576;2023-01-10T12:31:13;23.37;;;4.10;;
16826;SDS011;8530;49.540;8.576;2023-01-10T12:33:42;11.83;;;4.27;;
16826;SDS011;8530;49.540;8.576;2023-01-10T12:36:12;26.90;;;4.50;;
16826;SDS011;8530;49.540;8.576;2023-01-10T12:38:56;15.07;;;4.30;;
16826;SDS011;8530;49.540;8.576;2023-01-10T12:41:32;13.33;;;4.53;;
16826;SDS011;8530;49.540;8.576;2023-01-10T12:44:27;16.43;;;4.60;;
16826;SDS011;8530;49.540;8.576;2023-01-10T12:47:00;13.63;;;4.10;;
16826;SDS011;8530;49.540;8.576;2023-01-10T12:49:33;12.10;;;4.10;;
16826;SDS011;8530;49.540;8.576;2023-01-10T12:52:06;12.67;;;4.57;;
16826;SDS011;8530;49.540;8.576;2023-01-10T12:54:39;14.43;;;4.63;;
16826;SDS011;8530;49.540;8.576;2023-01-10T12:57:13;13.67;;;5.13;;
16826;SDS011;8530;49.540;8.576;2023-01-10T12:59:47;15.77;;;5.37;;
16826;SDS011;8530;49.540;8.576;2023-01-10T13:02:15;18.07;;;4.50;;
16826;SDS011;8530;49.540;8.576;2023-01-10T13:04:45;11.70;;;4.90;;
16826;SDS011;8530;49.540;8.576;2023-01-10T13:07:14;18.50;;;4.00;;
16826;SDS011;8530;49.540;8.576;2023-01-10T13:09:44;10.63;;;3.87;;
16826;SDS011;8530;49.540;8.576;2023-01-10T13:12:13;12.33;;;5.90;;
16826;SDS011;8530;49.540;8.576;2023-01-10T13:14:47;21.90;;;4.60;;
16826;SDS011;8530;49.540;8.576;2023-01-10T13:17:22;15.73;;;4.67;;
16826;SDS011;8530;49.540;8.576;2023-01-10T13:22:44;17.10;;;6.13;;
16826;SDS011;8530;49.540;8.576;2023-01-10T13:25:19;15.07;;;3.70;;
16826;SDS011;8530;49.540;8.576;2023-01-10T13:27:51;15.10;;;3.87;;
16826;SDS011;8530;49.540;8.576;2023-01-10T13:30:24;8.87;;;3.90;;
16826;SDS011;8530;49.540;8.576;2023-01-10T13:32:55;16.23;;;4.20;;
16826;SDS011;8530;49.540;8.576;2023-01-10T13:35:34;13.10;;;4.03;;
16826;SDS011;8530;49.540;8.576;2023-01-10T13:38:13;12.07;;;4.40;;
16826;SDS011;8530;49.540;8.576;2023-01-10T13:40:56;13.13;;;4.40;;
16826;SDS011;8530;49.540;8.576;2023-01-10T13:43:31;17.83;;;4.37;;
16826;SDS011;8530;49.540;8.576;2023-01-10T13:46:39;11.50;;;4.77;;
16826;SDS011;8530;49.540;8.576;2023-01-10T13:49:26;17.63;;;3.87;;
16826;SDS011;8530;49.540;8.576;2023-01-10T13:54:59;13.50;;;4.10;;
16826;SDS011;8530;49.540;8.576;2023-01-10T13:57:49;7.50;;;3.90;;
16826;SDS011;8530;49.540;8.576;2023-01-10T14:00:21;13.10;;;4.60;;
16826;SDS011;8530;49.540;8.576;2023-01-10T14:06:11;15.80;;;4.97;;
16826;SDS011;8530;49.540;8.576;2023-01-10T14:08:57;14.23;;;3.60;;
16826;SDS011;8530;49.540;8.576;2023-01-10T14:11:26;14.53;;;5.53;;
16826;SDS011;8530;49.540;8.576;2023-01-10T14:14:00;15.03;;;3.67;;
16826;SDS011;8530;49.540;8.576;2023-01-10T14:16:32;10.50;;;3.67;;
16826;SDS011;8530;49.540;8.576;2023-01-10T14:19:01;11.67;;;4.70;;
16826;SDS011;8530;49.540;8.576;2023-01-10T14:21:31;17.20;;;3.80;;
16826;SDS011;8530;49.540;8.576;2023-01-10T14:24:03;10.00;;;4.10;;
16826;SDS011;8530;49.540;8.576;2023-01-10T14:26:31;18.87;;;3.87;;
16826;SDS011;8530;49.540;8.576;2023-01-10T14:29:06;7.00;;;4.30;;
16826;SDS011;8530;49.540;8.576;2023-01-10T14:31:36;15.47;;;4.70;;
16826;SDS011;8530;49.540;8.576;2023-01-10T14:34:08;9.63;;;4.47;;
16826;SDS011;8530;49.540;8.576;2023-01-10T14:36:40;14.27;;;4.57;;
16826;SDS011;8530;49.540;8.576;2023-01-10T14:39:11;14.90;;;4.70;;
16826;SDS011;8530;49.540;8.576;2023-01-10T14:41:41;13.40;;;4.73;;
16826;SDS011;8530;49.540;8.576;2023-01-10T14:44:14;18.00;;;4.43;;
16826;SDS011;8530;49.540;8.576;2023-01-10T14:46:45;9.37;;;3.73;;
16826;SDS011;8530;49.540;8.576;2023-01-10T14:49:21;14.90;;;4.83;;
16826;SDS011;8530;49.540;8.576;2023-01-10T14:51:49;5.43;;;3.60;;
16826;SDS011;8530;49.540;8.576;2023-01-10T14:54:17;7.93;;;3.40;;
16826;SDS011;8530;49.540;8.576;2023-01-10T14:56:48;16.07;;;3.50;;
16826;SDS011;8530;49.540;8.576;2023-01-10T14:59:23;13.23;;;3.33;;
16826;SDS011;8530;49.540;8.576;2023-01-10T15:01:52;9.37;;;4.17;;
16826;SDS011;8530;49.540;8.576;2023-01-10T15:04:21;22.70;;;3.83;;
16826;SDS011;8530;49.540;8.576;2023-01-10T15:06:51;14.40;;;4.70;;
16826;SDS011;8530;49.540;8.576;2023-01-10T15:09:20;13.53;;;4.00;;
16826;SDS011;8530;49.540;8.576;2023-01-10T15:11:47;12.83;;;4.13;;
16826;SDS011;8530;49.540;8.576;2023-01-10T15:14:15;9.60;;;3.57;;
16826;SDS011;8530;49.540;8.576;2023-01-10T15:16:48;11.60;;;3.80;;
16826;SDS011;8530;49.540;8.576;2023-01-10T15:19:19;7.83;;;3.87;;
16826;SDS011;8530;49.540;8.576;2023-01-10T15:21:47;11.47;;;5.10;;
16826;SDS011;8530;49.540;8.576;2023-01-10T15:24:31;12.07;;;4.23;;
16826;SDS011;8530;49.540;8.576;2023-01-10T15:27:01;12.83;;;3.97;;
16826;SDS011;8530;49.540;8.576;2023-01-10T15:29:29;8.23;;;3.53;;
16826;SDS011;8530;49.540;8.576;2023-01-10T15:32:00;18.63;;;4.40;;
16826;SDS011;8530;49.540;8.576;2023-01-10T15:34:33;14.53;;;4.47;;
16826;SDS011;8530;49.540;8.576;2023-01-10T15:37:00;18.80;;;4.87;;